Time;durP1;ratioP1;P1;durP2;ratioP2;P2;SDS_P1;SDS_P2;PMS_P1;PMS_P2;Temp;Humidity;BMP_temperature;BMP_pressure;BME280_temperature;BME280_humidity;BME280_pressure;Samples;Min_cycle;Max_cycle;Signal;HPM_P1;HPM_P2
2023/12/25 00:00:47;;;;;;;1.60;1.50;;;10.60;99.90;;;11.26;72.64;97587.28;10477597;28;20604;-69
2023/12/25 00:05:51;;;;;;;1.73;1.63;;;10.60;99.90;;;11.30;71.33;97583.19;10463688;28;20233;-69
2023/12/25 00:10:54;;;;;;;1.73;1.60;;;10.70;99.90;;;11.14;72.81;97579.00;10414310;28;20579;-70
2023/12/25 00:15:58;;;;;;;1.75;1.65;;;10.50;99.90;;;11.13;73.18;97592.59;10411012;28;20580;-67
2023/12/25 00:21:01;;;;;;;1.52;1.42;;;10.40;99.90;;;11.29;72.40;97589.13;10440295;28;20798;-71
2023/12/25 00:26:05;;;;;;;1.80;1.70;;;10.50;99.90;;;11.05;72.44;97581.09;10411532;28;20250;-70
2023/12/25 00:31:09;;;;;;;1.67;1.58;;;10.40;99.90;;;11.11;72.49;97594.19;10412596;28;20233;-70
2023/12/25 00:36:13;;;;;;;1.73;1.63;;;10.40;99.90;;;11.06;72.65;97587.97;10410783;28;20225;-70
2023/12/25 00:41:16;;;;;;;1.77;1.65;;;10.30;99.90;;;10.92;72.68;97596.63;10409006;28;20249;-70
2023/12/25 00:46:21;;;;;;;1.90;1.80;;;10.30;99.90;;;11.01;71.65;97595.41;10410778;28;20233;-70
2023/12/25 00:51:25;;;;;;;1.75;1.65;;;10.30;99.90;;;11.01;72.55;97590.28;10413339;28;20233;-70
2023/12/25 00:56:28;;;;;;;1.67;1.50;;;10.30;99.90;;;10.93;71.62;97598.34;10414483;28;20303;-70
2023/12/25 01:01:33;;;;;;;1.38;1.38;;;10.20;99.90;;;10.83;71.61;97587.66;10411296;28;20225;-70
2023/12/25 01:06:36;;;;;;;1.30;1.20;;;10.20;99.90;;;11.03;70.67;97582.69;10482144;28;20314;-70
2023/12/25 01:11:41;;;;;;;1.40;1.30;;;10.30;99.90;;;10.91;71.54;97569.31;10500399;28;20232;-70
2023/12/25 01:16:46;;;;;;;1.30;1.20;;;10.20;99.90;;;10.79;71.98;97572.97;10417399;28;20240;-70
2023/12/25 01:21:49;;;;;;;1.65;1.52;;;10.10;99.90;;;10.88;70.92;97569.16;10421455;28;20235;-68
2023/12/25 01:26:53;;;;;;;1.45;1.35;;;10.10;99.90;;;11.01;69.67;97574.06;10416183;28;20299;-69
2023/12/25 01:31:57;;;;;;;1.60;1.50;;;10.20;99.90;;;10.93;68.56;97576.25;10449795;28;20265;-68
2023/12/25 01:37:01;;;;;;;1.58;1.30;;;10.30;99.90;;;10.89;68.23;97584.53;10413180;28;20732;-70
2023/12/25 01:42:04;;;;;;;1.60;1.40;;;10.30;99.90;;;10.85;68.41;97579.22;10415766;28;20608;-68
2023/12/25 01:47:09;;;;;;;2.28;1.55;;;10.20;99.90;;;10.91;67.42;97587.19;10418221;28;20229;-69
2023/12/25 01:52:13;;;;;;;1.67;1.60;;;10.30;99.90;;;10.91;66.62;97587.19;10411997;28;20668;-69
2023/12/25 01:57:16;;;;;;;1.73;1.63;;;10.30;99.90;;;10.88;67.99;97574.25;10412508;28;20241;-69
2023/12/25 02:02:22;;;;;;;2.13;1.48;;;10.20;99.90;;;10.93;67.30;97583.03;10421466;28;20232;-70
2023/12/25 02:07:26;;;;;;;1.92;1.70;;;10.20;99.90;;;11.13;65.50;97569.59;10417105;28;20230;-68
2023/12/25 02:12:29;;;;;;;2.75;1.60;;;10.30;99.90;;;10.89;67.23;97584.53;10412438;28;20224;-70
2023/12/25 02:17:34;;;;;;;1.50;1.40;;;10.20;99.90;;;11.00;66.11;97583.41;10411989;28;20323;-70
2023/12/25 02:22:37;;;;;;;2.88;1.80;;;10.20;99.90;;;10.93;66.51;97593.25;10414897;28;20272;-70
2023/12/25 02:27:42;;;;;;;1.75;1.65;;;10.20;99.90;;;11.01;66.25;97594.53;10421627;28;20247;-70
2023/12/25 02:32:45;;;;;;;1.17;1.10;;;10.20;99.90;;;10.92;65.80;97600.03;10449920;28;20533;-70
2023/12/25 02:37:49;;;;;;;1.63;1.42;;;10.20;99.90;;;10.91;64.63;97607.66;10470793;28;20243;-70
2023/12/25 02:42:53;;;;;;;1.92;1.83;;;10.20;99.90;;;10.94;64.97;97607.81;10437126;28;20240;-68
2023/12/25 02:47:56;;;;;;;1.67;1.58;;;10.30;99.90;;;10.99;64.56;97606.38;10463774;28;20231;-69
2023/12/25 02:53:03;;;;;;;1.63;1.52;;;10.30;99.90;;;10.79;65.89;97606.22;10496528;28;20299;-70
2023/12/25 02:58:08;;;;;;;1.70;1.60;;;10.10;99.90;;;10.89;64.33;97593.91;10490277;28;20236;-70
2023/12/25 03:03:11;;;;;;;1.40;1.30;;;10.20;99.90;;;10.89;64.55;97599.00;10411398;28;20919;-69
2023/12/25 03:08:14;;;;;;;2.47;1.50;;;10.20;99.90;;;10.99;64.62;97588.47;10411427;28;20225;-68
2023/12/25 03:13:19;;;;;;;1.77;1.27;;;10.20;99.90;;;11.01;63.90;97580.03;10422589;28;20326;-68
2023/12/25 03:18:22;;;;;;;1.35;1.35;;;10.10;99.90;;;10.98;63.46;97571.34;10407139;28;20591;-70
2023/12/25 03:23:26;;;;;;;1.83;1.73;;;10.30;99.90;;;11.03;63.13;97577.59;10414780;28;20229;-71
2023/12/25 03:28:30;;;;;;;2.22;1.50;;;10.20;99.90;;;10.92;62.89;97583.84;10419334;28;20275;-70
2023/12/25 03:33:34;;;;;;;1.45;1.35;;;10.20;99.90;;;10.99;62.13;97575.69;10426962;28;20256;-69
2023/12/25 03:38:37;;;;;;;1.80;1.70;;;10.30;99.90;;;10.81;61.92;97589.25;10470774;28;20239;-70
2023/12/25 03:43:42;;;;;;;1.67;1.65;;;10.10;99.90;;;10.97;61.97;97587.50;10462341;28;20231;-67
2023/12/25 03:48:46;;;;;;;1.60;1.50;;;10.30;99.90;;;10.98;61.92;97590.13;10440442;28;20258;-69
2023/12/25 03:53:49;;;;;;;1.65;1.55;;;10.20;99.90;;;10.85;61.67;97584.34;10446372;28;20221;-69
2023/12/25 03:58:54;;;;;;;1.52;1.20;;;10.10;99.90;;;10.74;63.73;97589.75;10495977;28;20230;-69
2023/12/25 04:03:57;;;;;;;1.20;1.10;;;10.00;99.90;;;10.81;63.05;97596.94;10490808;28;20311;-67
2023/12/25 04:09:00;;;;;;;1.40;1.30;;;10.00;99.90;;;10.60;64.53;97591.59;10495997;28;20255;-69
2023/12/25 04:14:05;;;;;;;1.80;1.50;;;9.90;99.90;;;10.55;64.40;97587.03;10505273;28;20613;-69
2023/12/25 04:19:09;;;;;;;1.77;1.67;;;9.80;99.90;;;10.43;65.32;97602.59;10489668;28;20769;-69
2023/12/25 04:24:12;;;;;;;1.60;1.50;;;9.80;99.90;;;10.33;66.60;97603.78;10487927;28;20220;-68
2023/12/25 04:29:17;;;;;;;1.60;1.30;;;9.70;99.90;;;10.33;66.93;97606.34;10488821;28;20267;-69
2023/12/25 04:34:20;;;;;;;1.70;1.23;;;9.60;99.90;;;10.47;65.66;97593.41;10501872;28;20263;-69
2023/12/25 04:39:23;;;;;;;1.70;1.60;;;9.70;99.90;;;10.56;63.32;97593.91;10494335;28;20323;-69
2023/12/25 04:44:28;;;;;;;1.67;1.58;;;9.80;99.90;;;10.59;62.75;97594.09;10490761;28;20306;-69
2023/12/25 04:49:32;;;;;;;1.95;1.50;;;9.80;99.90;;;10.68;61.91;97599.66;10506548;28;20231;-69
2023/12/25 04:54:36;;;;;;;1.70;1.52;;;9.90;99.90;;;10.68;63.52;97597.09;10468990;28;20260;-69
2023/12/25 04:59:40;;;;;;;1.65;1.55;;;9.80;99.90;;;10.45;62.26;97605.25;10494435;28;20633;-69
2023/12/25 05:04:43;;;;;;;1.88;1.77;;;9.80;99.90;;;10.45;62.87;97600.13;10471300;28;20232;-68
2023/12/25 05:09:46;;;;;;;1.60;1.50;;;9.70;99.90;;;10.43;63.41;97605.16;10453620;28;20239;-68
2023/12/25 05:14:51;;;;;;;1.27;1.27;;;9.70;99.90;;;10.35;62.80;97604.72;10464760;28;20255;-68
2023/12/25 05:19:54;;;;;;;2.25;1.48;;;9.60;99.90;;;10.34;63.76;97600.44;10454765;28;20225;-69
2023/12/25 05:24:57;;;;;;;1.40;1.40;;;9.60;99.90;;;10.37;63.99;97598.03;10454249;28;20227;-69
2023/12/25 05:30:02;;;;;;;1.52;1.42;;;9.60;99.90;;;10.25;63.34;97592.25;10472362;28;20225;-70
2023/12/25 05:35:06;;;;;;;1.50;1.40;;;9.50;99.90;;;10.40;62.46;97594.78;10467634;28;20228;-70
2023/12/25 05:40:12;;;;;;;1.67;1.58;;;9.70;99.90;;;10.17;64.69;97602.84;10451519;28;20229;-69
2023/12/25 05:45:18;;;;;;;2.08;1.67;;;9.50;99.90;;;10.08;65.88;97605.78;10464699;28;20325;-69
2023/12/25 05:50:22;;;;;;;1.23;1.23;;;9.40;99.90;;;10.08;66.16;97600.69;10450995;28;20225;-69
2023/12/25 05:55:26;;;;;;;1.65;1.30;;;9.30;99.90;;;10.05;66.38;97605.63;10448393;28;20239;-69
2023/12/25 06:00:30;;;;;;;1.70;1.60;;;9.30;99.90;;;9.99;65.42;97607.84;10458070;28;20664;-68
2023/12/25 06:05:33;;;;;;;1.55;1.40;;;9.30;99.90;;;9.92;67.37;97604.91;10455894;28;20806;-69
2023/12/25 06:10:37;;;;;;;1.60;1.50;;;9.20;99.90;;;9.99;65.82;97620.59;10452605;28;20315;-69
2023/12/25 06:15:41;;;;;;;1.80;1.70;;;9.20;99.90;;;9.93;65.21;97628.81;10450690;28;20234;-68
2023/12/25 06:20:45;;;;;;;1.80;1.70;;;9.20;99.90;;;9.96;65.20;97631.53;10452073;28;20236;-69
2023/12/25 06:25:50;;;;;;;1.80;1.70;;;9.20;99.90;;;9.90;64.69;97641.38;10448469;28;20290;-69
2023/12/25 06:30:54;;;;;;;1.65;1.52;;;9.20;99.90;;;10.20;61.87;97629.44;10455560;28;20225;-69
2023/12/25 06:35:57;;;;;;;1.45;1.35;;;9.30;99.90;;;10.20;61.37;97637.09;10451513;28;20260;-68
2023/12/25 06:41:01;;;;;;;1.55;1.45;;;9.30;99.90;;;10.06;62.31;97635.44;10454854;28;20251;-68
2023/12/25 06:46:06;;;;;;;1.90;1.80;;;9.30;99.90;;;10.09;62.68;97635.63;10455676;28;20232;-69
2023/12/25 06:51:09;;;;;;;1.30;1.30;;;9.30;99.90;;;9.88;62.87;97638.75;10453792;28;20228;-68
2023/12/25 06:56:12;;;;;;;1.52;1.52;;;9.20;99.90;;;9.85;64.35;97648.78;10455458;28;20228;-69
2023/12/25 07:01:22;;;;;;;1.88;1.73;;;9.20;99.90;;;9.84;63.30;97644.47;10428651;28;20263;-71
2023/12/25 07:06:26;;;;;;;1.67;1.58;;;9.10;99.90;;;9.89;63.66;97643.03;10453832;28;20224;-69
2023/12/25 07:11:29;;;;;;;1.52;1.40;;;9.10;99.90;;;9.91;64.12;97667.00;10501776;28;20231;-69
2023/12/25 07:16:34;;;;;;;1.70;1.60;;;9.20;99.90;;;9.93;63.17;97660.31;10495882;28;20596;-69
2023/12/25 07:21:37;;;;;;;2.00;1.90;;;9.10;99.90;;;9.84;64.41;97664.91;10492131;28;20346;-69
2023/12/25 07:26:40;;;;;;;1.85;1.67;;;9.10;99.90;;;9.91;65.37;97661.88;10484407;28;20729;-70
2023/12/25 07:31:44;;;;;;;2.10;2.00;;;9.10;99.90;;;9.90;63.48;97675.47;10413879;28;20275;-69
2023/12/25 07:36:48;;;;;;;2.00;1.90;;;9.20;99.90;;;9.82;64.32;97676.69;10415055;28;20779;-67
2023/12/25 07:41:51;;;;;;;1.85;1.75;;;9.10;99.90;;;9.91;63.94;97681.44;10411893;28;20613;-69
2023/12/25 07:46:55;;;;;;;2.45;1.60;;;9.20;99.90;;;9.83;63.75;97675.00;10473231;28;20221;-69
2023/12/25 07:51:59;;;;;;;1.50;1.50;;;9.10;99.90;;;9.86;64.09;97693.94;10464851;28;20759;-68
2023/12/25 07:57:02;;;;;;;1.77;1.67;;;9.20;99.90;;;9.97;62.74;97701.31;10490372;28;20224;-69
2023/12/25 08:02:07;;;;;;;1.50;1.38;;;9.20;99.90;;;10.00;62.74;97704.06;10485458;28;20237;-69
2023/12/25 08:07:10;;;;;;;1.80;1.70;;;9.20;99.90;;;10.13;58.93;97716.72;10483217;28;20228;-68
2023/12/25 08:12:14;;;;;;;1.80;1.70;;;9.40;99.90;;;10.18;60.80;97716.97;10493880;28;20235;-69
2023/12/25 08:17:18;;;;;;;1.92;1.83;;;9.40;99.90;;;10.12;60.90;97717.50;10470471;28;20229;-69
2023/12/25 08:22:22;;;;;;;1.65;1.40;;;9.40;99.90;;;10.23;59.57;97721.53;10414697;28;20236;-70
2023/12/25 08:27:25;;;;;;;1.50;1.50;;;9.40;99.90;;;10.47;59.48;97710.94;10436809;28;20221;-68
2023/12/25 08:32:32;;;;;;;2.03;1.90;;;9.60;99.90;;;10.34;58.48;97720.50;10495872;28;20240;-68
2023/12/25 08:37:35;;;;;;;1.50;1.50;;;9.60;99.90;;;10.57;58.56;97733.66;10471313;28;20765;-69
2023/12/25 08:42:38;;;;;;;1.60;1.50;;;9.70;99.90;;;10.49;58.51;97740.03;10457082;28;20231;-67
2023/12/25 08:47:42;;;;;;;1.80;1.70;;;9.60;99.90;;;10.54;58.09;97751.41;10458686;28;20236;-70
2023/12/25 08:52:46;;;;;;;1.83;1.73;;;9.70;99.90;;;10.45;58.63;97758.56;10477173;28;20259;-67
2023/12/25 08:57:49;;;;;;;2.00;1.90;;;9.60;99.90;;;10.65;57.56;97762.22;10478226;28;20930;-68
2023/12/25 09:02:54;;;;;;;34.38;26.92;;;9.80;99.90;;;10.67;57.10;97769.16;10485880;28;20296;-69
2023/12/25 09:07:57;;;;;;;5.30;4.80;;;9.80;99.90;;;10.74;57.38;97768.69;10453181;28;20236;-69
2023/12/25 09:13:00;;;;;;;4.45;4.15;;;9.90;99.90;;;10.70;59.63;97759.13;10470863;28;20240;-67
2023/12/25 09:18:05;;;;;;;4.07;3.50;;;9.80;99.90;;;10.85;56.75;97770.97;10482323;28;20228;-67
2023/12/25 09:23:09;;;;;;;4.40;4.00;;;10.00;99.90;;;10.71;58.16;97773.66;10483552;28;20718;-68
2023/12/25 09:28:13;;;;;;;2.45;2.35;;;10.00;99.90;;;10.70;58.64;97766.78;10455910;28;20251;-68
2023/12/25 09:33:17;;;;;;;2.42;2.33;;;10.00;99.90;;;10.72;56.93;97775.41;10410774;28;20794;-68
2023/12/25 09:38:24;;;;;;;2.17;2.08;;;10.00;99.90;;;10.79;58.04;97777.50;10417796;28;20232;-69
2023/12/25 09:43:28;;;;;;;2.50;2.30;;;10.10;99.90;;;10.80;57.65;97778.38;10476585;28;20296;-70
2023/12/25 09:48:35;;;;;;;1.90;1.80;;;10.20;99.90;;;10.63;59.80;97780.00;10459969;28;20226;-70
2023/12/25 09:53:39;;;;;;;1.98;1.88;;;10.00;99.90;;;10.80;60.43;97776.69;10472903;28;20226;-68
2023/12/25 09:58:43;;;;;;;2.65;2.45;;;10.00;99.90;;;10.97;59.03;97772.50;10488935;28;20275;-69
2023/12/25 10:03:48;;;;;;;2.25;2.10;;;10.20;99.90;;;10.92;59.56;97766.25;10434456;28;20717;-69
2023/12/25 10:08:51;;;;;;;1.90;1.80;;;10.20;99.90;;;11.08;59.08;97757.75;10449415;28;20712;-69
2023/12/25 10:13:55;;;;;;;2.20;2.10;;;10.20;99.90;;;11.13;59.92;97748.63;10412285;28;20282;-70
2023/12/25 10:19:00;;;;;;;2.20;2.10;;;10.40;99.90;;;11.15;60.36;97731.66;10416371;28;20221;-70
2023/12/25 10:24:13;;;;;;;2.17;1.98;;;10.50;99.90;;;11.09;60.22;97726.25;10413371;28;20233;-69
2023/12/25 10:29:16;;;;;;;2.00;1.60;;;10.60;99.90;;;11.18;60.42;97716.47;10459599;28;20327;-68
2023/12/25 10:34:21;;;;;;;2.03;1.92;;;10.60;99.90;;;11.30;61.96;97715.38;10447276;28;20315;-68
2023/12/25 10:39:32;;;;;;;1.52;1.42;;;10.50;99.90;;;11.46;62.40;97705.13;10471250;28;20225;-68
2023/12/25 10:44:38;;;;;;;2.22;2.03;;;10.70;99.90;;;11.53;63.64;97716.53;10492903;28;20755;-69
2023/12/25 10:49:44;;;;;;;1.90;1.80;;;10.70;99.90;;;11.48;64.14;97717.19;10442573;28;20717;-68
2023/12/25 10:54:49;;;;;;;2.47;1.92;;;10.70;99.90;;;11.85;63.18;97708.84;10456671;28;20602;-69
2023/12/25 10:59:54;;;;;;;1.80;1.70;;;11.00;99.90;;;11.63;63.71;97718.78;10478281;28;20260;-68
2023/12/25 11:05:00;;;;;;;3.03;2.83;;;11.00;99.90;;;11.75;63.82;97721.06;10481277;28;20777;-69
2023/12/25 11:10:03;;;;;;;1.98;1.80;;;11.10;99.90;;;11.76;64.03;97707.47;10461619;28;20236;-71
2023/12/25 11:15:07;;;;;;;2.10;2.00;;;11.00;99.90;;;11.73;63.83;97716.75;10469987;28;20599;-67
2023/12/25 11:20:13;;;;;;;2.10;2.00;;;10.90;99.90;;;11.57;63.95;97715.91;10464192;28;20243;-68
2023/12/25 11:25:18;;;;;;;2.50;2.40;;;10.80;99.90;;;11.50;65.81;97712.13;10463862;28;20231;-69
2023/12/25 11:30:24;;;;;;;1.60;1.50;;;10.80;99.90;;;11.56;64.49;97691.09;10473483;28;20366;-69
2023/12/25 11:35:32;;;;;;;2.05;1.95;;;10.90;99.90;;;11.56;65.40;97693.66;10487793;28;20239;-69
2023/12/25 11:40:40;;;;;;;2.05;1.95;;;10.80;99.90;;;11.53;65.34;97704.63;10483328;28;20228;-67
2023/12/25 11:45:44;;;;;;;1.88;1.77;;;10.90;99.90;;;11.50;65.94;97715.59;10462186;28;20231;-67
2023/12/25 11:51:01;;;;;;;3.08;2.88;;;10.80;99.90;;;11.39;67.25;97709.06;10435299;28;20820;-68
2023/12/25 11:56:07;;;;;;;57.55;31.77;;;10.60;99.90;;;11.49;68.02;97715.50;10401736;28;20234;-68
2023/12/25 12:01:16;;;;;;;2.60;2.40;;;10.70;99.90;;;11.61;68.01;97693.09;10409695;28;20227;-69
2023/12/25 12:06:21;;;;;;;3.33;2.15;;;10.80;99.90;;;11.59;69.73;97693.81;10412795;28;20556;-70
2023/12/25 12:11:24;;;;;;;2.17;2.08;;;10.80;99.90;;;11.69;70.01;97691.78;10409937;28;20225;-70
2023/12/25 12:16:28;;;;;;;1.30;1.30;;;11.10;99.90;;;11.63;71.66;97691.50;10459221;28;20601;-68
2023/12/25 12:21:32;;;;;;;1.83;1.60;;;10.90;99.90;;;11.72;71.61;97697.06;10455963;28;20232;-67
2023/12/25 12:26:36;;;;;;;1.48;1.48;;;11.00;99.90;;;11.68;72.58;97690.03;10490543;28;20751;-68
2023/12/25 12:31:40;;;;;;;1.65;1.48;;;11.00;99.90;;;11.89;72.03;97702.19;10487774;28;20731;-70
2023/12/25 12:36:44;;;;;;;2.00;1.77;;;11.20;99.90;;;11.84;71.90;97701.03;10486539;28;20532;-70
2023/12/25 12:41:47;;;;;;;1.67;1.60;;;11.10;99.90;;;11.79;73.50;97705.03;10492895;28;20219;-68
2023/12/25 12:46:52;;;;;;;1.63;1.52;;;11.10;99.90;;;11.69;74.86;97696.03;10488055;28;20236;-68
2023/12/25 12:51:56;;;;;;;1.95;1.85;;;10.90;99.90;;;11.79;74.33;97695.72;10484046;28;20266;-68
2023/12/25 12:57:00;;;;;;;1.40;1.40;;;10.90;99.90;;;11.89;73.83;97681.69;10493079;28;20316;-68
2023/12/25 13:02:03;;;;;;;1.58;1.45;;;11.20;99.90;;;11.96;73.68;97686.31;10418573;28;20260;-69
2023/12/25 13:07:07;;;;;;;1.40;1.40;;;11.10;99.90;;;11.78;75.11;97688.81;10417177;28;20229;-68
2023/12/25 13:12:11;;;;;;;1.10;1.10;;;11.00;99.90;;;11.94;74.33;97693.06;10443419;28;20765;-67
2023/12/25 13:17:15;;;;;;;1.00;1.00;;;11.10;99.90;;;11.87;75.08;97694.41;10445816;28;20219;-66
2023/12/25 13:22:20;;;;;;;3.47;2.80;;;11.10;99.90;;;11.90;75.21;97692.03;10488655;28;20707;-69
2023/12/25 13:27:23;;;;;;;1.80;1.70;;;11.10;99.90;;;11.93;74.71;97692.19;10439464;28;20220;-67
2023/12/25 13:32:26;;;;;;;1.35;1.35;;;11.20;99.90;;;11.81;76.00;97685.53;10491741;28;20643;-68
2023/12/25 13:37:31;;;;;;;1.20;1.10;;;11.20;99.90;;;11.80;76.40;97684.66;10485416;28;20730;-68
2023/12/25 13:42:34;;;;;;;1.25;1.15;;;11.10;99.90;;;11.94;76.54;97686.25;10435736;28;20219;-69
2023/12/25 13:47:37;;;;;;;1.52;1.42;;;11.10;99.90;;;11.91;77.34;97680.97;10459294;28;20319;-68
2023/12/25 13:52:52;;;;;;;2.35;1.52;;;11.10;99.90;;;12.06;77.14;97683.38;10410749;28;20670;-68
2023/12/25 13:57:55;;;;;;;1.27;1.27;;;11.20;99.90;;;12.10;76.83;97682.75;10424211;28;20791;-69
2023/12/25 14:02:59;;;;;;;1.73;1.50;;;11.40;99.90;;;12.14;76.01;97682.06;10407806;28;20228;-68
2023/12/25 14:08:04;;;;;;;1.50;1.40;;;11.50;99.90;;;12.11;75.74;97684.50;10410095;28;20892;-66
2023/12/25 14:13:07;;;;;;;4.43;4.13;;;11.40;99.90;;;12.17;73.87;97689.91;10465573;28;20220;-66
2023/12/25 14:18:10;;;;;;;1.85;1.75;;;11.50;99.90;;;12.03;75.49;97690.94;10496375;28;20273;-68
2023/12/25 14:23:16;;;;;;;1.60;1.50;;;11.50;99.90;;;11.97;76.04;97693.19;10484363;28;20234;-69
2023/12/25 14:28:20;;;;;;;1.75;1.67;;;11.40;99.90;;;11.96;75.69;97696.56;10489260;28;20232;-68
2023/12/25 14:33:23;;;;;;;1.80;1.70;;;11.60;99.90;;;11.81;76.77;97690.66;10485221;28;20231;-68
2023/12/25 14:38:31;;;;;;;1.67;1.58;;;11.20;99.90;;;11.77;77.48;97693.88;10488660;28;20232;-68
2023/12/25 14:43:34;;;;;;;1.65;1.55;;;11.00;99.90;;;11.66;78.38;97691.63;10489134;28;20631;-69
2023/12/25 14:48:37;;;;;;;1.45;1.33;;;10.90;99.90;;;11.77;78.16;97696.44;10486246;28;20760;-68
2023/12/25 14:53:42;;;;;;;2.90;2.70;;;10.90;99.90;;;11.76;78.46;97681.84;10458574;28;20228;-69
2023/12/25 14:58:46;;;;;;;1.85;1.70;;;11.00;99.90;;;11.78;78.73;97695.63;10464258;28;20228;-69
2023/12/25 15:03:49;;;;;;;2.88;2.67;;;11.00;99.90;;;11.72;79.08;97689.38;10461980;28;20306;-69
2023/12/25 15:08:54;;;;;;;1.25;1.25;;;10.90;99.90;;;11.60;79.56;97696.47;10472077;28;20373;-70
2023/12/25 15:13:57;;;;;;;1.40;1.30;;;10.90;99.90;;;11.59;79.60;97697.28;10485432;28;20339;-68
2023/12/25 15:19:03;;;;;;;1.35;1.27;;;10.90;99.90;;;11.60;79.84;97706.69;10480974;28;20224;-70
2023/12/25 15:24:08;;;;;;;1.50;1.50;;;10.80;99.90;;;11.56;81.06;97707.34;10480497;28;20738;-69
2023/12/25 15:29:11;;;;;;;6.68;6.07;;;10.70;99.90;;;11.71;79.54;97713.25;10484268;28;20227;-69
2023/12/25 15:34:15;;;;;;;11.48;8.38;;;10.80;99.90;;;11.66;80.23;97716.38;10487907;28;20234;-70
2023/12/25 15:39:22;;;;;;;4.57;4.18;;;10.80;99.90;;;11.58;80.58;97717.66;10453374;28;20293;-68
2023/12/25 15:44:28;;;;;;;1.77;1.67;;;10.80;99.90;;;11.67;80.04;97707.88;10480612;28;20252;-69
2023/12/25 15:49:31;;;;;;;1.83;1.73;;;10.90;99.90;;;11.72;79.57;97714.13;10446031;28;20240;-69
2023/12/25 15:54:37;;;;;;;1.50;1.48;;;10.90;99.90;;;11.46;80.66;97716.22;10476514;28;20230;-70
2023/12/25 15:59:40;;;;;;;15.38;9.95;;;10.70;99.90;;;11.62;79.32;97719.59;10470993;28;20366;-69
2023/12/25 16:04:44;;;;;;;1.40;1.30;;;10.90;99.90;;;11.70;78.91;97718.28;10462154;28;20231;-69
2023/12/25 16:09:51;;;;;;;1.38;1.38;;;11.00;99.90;;;11.60;79.53;97724.63;10481231;28;20289;-69
2023/12/25 16:14:56;;;;;;;1.83;1.70;;;10.90;99.90;;;11.60;79.21;97731.44;10483371;28;20232;-69
2023/12/25 16:20:00;;;;;;;1.92;1.83;;;10.90;99.90;;;11.67;78.27;97729.22;10482735;28;20696;-68
2023/12/25 16:25:06;;;;;;;1.90;1.80;;;11.00;99.90;;;11.63;78.69;97727.34;10481120;28;20232;-69
2023/12/25 16:30:10;;;;;;;2.30;2.20;;;10.90;99.90;;;11.61;78.25;97734.03;10477754;28;20779;-69
2023/12/25 16:35:14;;;;;;;1.90;1.80;;;11.00;99.90;;;11.62;78.78;97740.94;10416970;28;20225;-72
2023/12/25 16:40:19;;;;;;;1.80;1.70;;;10.90;99.90;;;11.58;78.30;97743.25;10455741;28;20269;-69
2023/12/25 16:45:22;;;;;;;1.90;1.80;;;10.90;99.90;;;11.61;77.94;97735.72;10490016;28;20224;-68
2023/12/25 16:50:25;;;;;;;1.88;1.77;;;11.10;99.90;;;11.52;78.09;97742.94;10496853;28;20239;-70
2023/12/25 16:55:30;;;;;;;2.20;2.10;;;10.90;99.90;;;11.51;79.39;97744.63;10490748;28;20308;-68
2023/12/25 17:00:34;;;;;;;2.00;1.90;;;10.80;99.90;;;11.59;78.29;97740.78;10495879;28;20350;-70
2023/12/25 17:05:37;;;;;;;1.95;1.85;;;10.90;99.90;;;11.68;77.51;97735.25;10490067;28;20234;-71
2023/12/25 17:10:42;;;;;;;7.35;6.50;;;11.10;99.90;;;11.71;77.59;97750.78;10497024;28;20296;-70
2023/12/25 17:15:45;;;;;;;1.63;1.52;;;11.20;99.90;;;11.68;76.98;97751.50;10473860;28;20229;-69
2023/12/25 17:20:48;;;;;;;2.30;2.13;;;11.10;99.90;;;11.63;77.25;97750.38;10420934;28;20229;-69
2023/12/25 17:25:53;;;;;;;1.77;1.67;;;10.90;99.90;;;11.73;76.30;97744.94;10415177;28;20316;-70
2023/12/25 17:30:57;;;;;;;1.63;1.60;;;11.20;99.90;;;11.64;76.77;97749.56;10418294;28;20857;-70
2023/12/25 17:36:00;;;;;;;1.70;1.60;;;11.10;99.90;;;11.74;75.43;97756.03;10414203;28;20221;-71
2023/12/25 17:41:05;;;;;;;1.67;1.58;;;11.20;99.90;;;11.59;76.07;97762.91;10496355;28;20711;-70
2023/12/25 17:46:08;;;;;;;1.70;1.60;;;11.10;99.90;;;11.57;75.08;97755.19;10499416;28;20224;-70
2023/12/25 17:51:11;;;;;;;2.50;1.80;;;11.20;99.90;;;11.47;75.82;97756.41;10483222;28;20542;-69
2023/12/25 17:56:15;;;;;;;1.90;1.75;;;11.00;99.90;;;11.46;76.36;97763.97;10444671;28;20217;-70
2023/12/25 18:01:19;;;;;;;1.90;1.80;;;10.90;99.90;;;11.52;75.84;97764.28;10467313;28;20247;-71
2023/12/25 18:06:22;;;;;;;2.45;2.35;;;10.80;99.90;;;11.44;75.50;97757.91;10480837;28;21301;-69
2023/12/25 18:11:27;;;;;;;1.67;1.58;;;10.80;99.90;;;11.46;75.21;97762.28;10457343;28;20232;-71
2023/12/25 18:16:30;;;;;;;2.42;1.65;;;10.80;99.90;;;11.37;74.61;97768.63;10480439;28;20224;-69
2023/12/25 18:21:34;;;;;;;1.73;1.63;;;10.70;99.90;;;11.44;73.76;97771.56;10439226;28;20233;-69
2023/12/25 18:26:38;;;;;;;2.38;2.20;;;10.90;99.90;;;11.45;73.41;97772.47;10418275;28;20236;-70
2023/12/25 18:31:41;;;;;;;2.20;2.00;;;10.80;99.90;;;11.24;74.04;97767.97;10418786;28;20385;-70
2023/12/25 18:36:44;;;;;;;2.55;2.35;;;10.50;99.90;;;11.31;72.90;97769.19;10422334;28;20229;-70
2023/12/25 18:41:49;;;;;;;2.28;2.10;;;10.70;99.90;;;11.46;71.82;97774.22;10422309;28;20352;-69
2023/12/25 18:46:52;;;;;;;2.05;1.95;;;10.70;99.90;;;11.41;72.13;97773.97;10458373;28;20240;-69
2023/12/25 18:51:55;;;;;;;2.15;1.60;;;10.60;99.90;;;11.20;72.30;97768.63;10440731;28;20230;-70
2023/12/25 18:57:02;;;;;;;1.85;1.75;;;10.50;99.90;;;11.28;71.51;97767.34;10480024;28;20310;-70
2023/12/25 19:02:06;;;;;;;1.90;1.77;;;10.50;99.90;;;11.11;72.35;97759.59;10456324;28;20609;-70
2023/12/25 19:07:09;;;;;;;1.85;1.75;;;10.40;99.90;;;11.17;70.83;97757.34;10444601;28;20228;-69
2023/12/25 19:12:15;;;;;;;2.33;1.95;;;10.40;99.90;;;11.18;71.05;97765.09;10479494;28;20220;-69
2023/12/25 19:17:18;;;;;;;2.20;2.10;;;10.40;99.90;;;11.14;71.14;97762.31;10482703;28;20677;-69
2023/12/25 19:22:22;;;;;;;1.95;1.85;;;10.40;99.90;;;11.08;71.12;97759.44;10488522;28;20236;-69
2023/12/25 19:27:26;;;;;;;2.28;2.13;;;10.30;99.90;;;11.10;70.61;97768.91;10488304;28;20228;-69
2023/12/25 19:32:30;;;;;;;2.70;2.50;;;10.30;99.90;;;11.13;70.80;97757.97;10488315;28;20690;-69
2023/12/25 19:37:33;;;;;;;4.75;4.32;;;10.30;99.90;;;11.06;70.54;97751.66;10488269;28;20409;-70
2023/12/25 19:42:37;;;;;;;3.22;2.92;;;10.20;99.90;;;11.03;70.67;97759.16;10464141;28;20228;-69
2023/12/25 19:47:43;;;;;;;3.40;2.67;;;10.20;99.90;;;10.99;71.25;97754.69;10462473;28;20582;-70
2023/12/25 19:52:47;;;;;;;2.58;2.38;;;10.10;99.90;;;10.85;70.87;97753.06;10442456;28;20275;-70
2023/12/25 19:57:51;;;;;;;2.80;2.60;;;10.10;99.90;;;10.91;69.91;97750.84;10477634;28;20319;-69
2023/12/25 20:02:55;;;;;;;3.42;2.58;;;10.10;99.90;;;10.62;71.48;97755.25;10464767;28;20315;-70
2023/12/25 20:07:58;;;;;;;2.67;2.47;;;9.90;99.90;;;10.71;71.63;97752.31;10457981;28;20253;-71
2023/12/25 20:13:05;;;;;;;3.40;3.10;;;9.90;99.90;;;10.87;69.59;97743.78;10488102;28;20228;-70
2023/12/25 20:18:09;;;;;;;2.60;2.40;;;10.00;99.90;;;10.90;68.60;97738.84;10488824;28;20239;-70
2023/12/25 20:23:12;;;;;;;1.90;1.80;;;10.10;99.90;;;10.76;69.50;97741.56;10498008;28;20243;-70
2023/12/25 20:28:17;;;;;;;3.15;1.95;;;9.90;99.90;;;10.79;68.06;97736.59;10497259;28;20264;-70
2023/12/25 20:33:20;;;;;;;2.47;2.00;;;10.00;99.90;;;10.68;68.43;97726.59;10493264;28;20225;-70
2023/12/25 20:38:24;;;;;;;2.40;2.20;;;9.90;99.90;;;10.57;69.57;97738.78;10492584;28;20993;-70
2023/12/25 20:43:29;;;;;;;2.25;2.10;;;9.80;99.90;;;10.47;69.40;97728.84;10490640;28;20227;-71
2023/12/25 20:48:32;;;;;;;3.05;2.60;;;9.70;99.90;;;10.36;69.94;97731.69;10500929;28;20228;-72
2023/12/25 20:53:35;;;;;;;6.10;4.70;;;9.60;99.90;;;10.35;68.56;97719.69;10490042;28;20570;-71
2023/12/25 20:58:40;;;;;;;3.45;3.15;;;9.60;99.90;;;10.29;69.01;97716.81;10489092;28;20722;-68
2023/12/25 21:03:43;;;;;;;4.20;2.95;;;9.60;99.90;;;10.23;68.86;97705.34;10454235;28;20315;-71
2023/12/25 21:08:47;;;;;;;3.35;3.05;;;9.50;99.90;;;10.27;69.04;97714.94;10476401;28;20263;-69